Amy C. Mc Allister — WCZ9520 — position and weather

sailwx.info

Track history (hours):
 
Tides and Currents Weather Stations Pressure Air Temp Water Temp Dewpoint Dewpoint Depression Visibility Wind Speed Wind Dir Waves Ship Positions

Amy C. Mc Allister

Owner: MC ALLISTER TOWING & TRANSPORTATION INC, NEW YORK, NY. More information available from US FCC via Universal Licensing System and Coast Guard Vessel Documentation Center.

Last reported at 2014-Oct-24 16:14 UTC. Time now 2014-Oct-25 18:27 UTC.
Position N 40°48' W 073°59'.

Length 27 m; draft 4.9 m.

Type: Towing. MMSI: 366995040.

Date/timePositionNaut miles runAvg speedWind from/ knotsBaromVisibWave heightAir tempDewpointWater temp
2014-Oct-24 16:14N 40°48' W 073°59'6 8.6
2014-Oct-24 15:34N 40°42' W 074°01'7 6.9
2014-Oct-24 14:33N 40°39' W 074°09'4 0.6
2014-Oct-24 08:34N 40°36' W 074°12'0 0.0
2014-Oct-24 07:19N 40°36' W 074°12'0 0.0
2014-Oct-24 06:28N 40°36' W 074°12'0 0.0
2014-Oct-24 04:28N 40°36' W 074°12'0 0.0
2014-Oct-24 03:34N 40°36' W 074°12'0 0.0
2014-Oct-24 02:34N 40°36' W 074°12'0 0.0
2014-Oct-24 01:34N 40°36' W 074°12'0 0.0
2014-Oct-24 00:33N 40°36' W 074°12'0 0.0
2014-Oct-23 23:33N 40°36' W 074°12'0 0.0
2014-Oct-23 22:27N 40°36' W 074°12'3 2.8
2014-Oct-23 21:22N 40°39' W 074°11'2 2.1
2014-Oct-23 20:32N 40°38' W 074°09'3 2.9
2014-Oct-23 19:30N 40°37' W 074°12'3 1.6
2014-Oct-23 17:34N 40°39' W 074°09'1 1.3
2014-Oct-23 16:34N 40°39' W 074°10'1 0.1
2014-Oct-23 04:27N 40°38' W 074°12'2 1.2
2014-Oct-23 03:11N 40°38' W 074°10'0 0.0
2014-Oct-23 02:26N 40°38' W 074°10'0 0.0
2014-Oct-23 00:30N 40°38' W 074°10'0 0.0
2014-Oct-22 21:16N 40°38' W 074°10'0 0.0
2014-Oct-22 20:15N 40°38' W 074°10'2 0.9
2014-Oct-22 17:34N 40°39' W 074°07'2 2.4
2014-Oct-22 16:33N 40°38' W 074°10'0 0.0
2014-Oct-22 15:33N 40°38' W 074°10'0 0.0
2014-Oct-22 14:32N 40°38' W 074°10'3 0.7
2014-Oct-22 09:30N 40°36' W 074°12'0 0.0
2014-Oct-22 08:34N 40°36' W 074°12'0 0.0
2014-Oct-22 07:33N 40°36' W 074°12'3 2.6
2014-Oct-22 06:33N 40°38' W 074°12'7 7.2
2014-Oct-22 05:34N 40°40' W 074°03'0 0.0
2014-Oct-22 04:34N 40°40' W 074°03'0 0.0
2014-Oct-22 03:34N 40°40' W 074°03'0 0.0
2014-Oct-22 02:34N 40°40' W 074°03'0 0.0
2014-Oct-22 01:34N 40°40' W 074°02'7 7.1
2014-Oct-22 00:34N 40°38' W 074°12'6 4.9
2014-Oct-21 23:15N 40°33' W 074°15'4 0.5
2014-Oct-21 15:33N 40°36' W 074°12'0 0.0
2014-Oct-21 14:33N 40°36' W 074°12'0 0.0
2014-Oct-21 13:29N 40°36' W 074°12'0 0.0
2014-Oct-21 12:33N 40°36' W 074°12'1 0.4
2014-Oct-21 10:32N 40°36' W 074°12'1 0.2
2014-Oct-21 05:32N 40°35' W 074°13'1 0.4
2014-Oct-21 02:30N 40°36' W 074°12'3 3.1
2014-Oct-21 01:30N 40°33' W 074°14'4 3.7
2014-Oct-21 00:27N 40°37' W 074°12'2 2.0
2014-Oct-20 23:23N 40°38' W 074°10'0 0.0
2014-Oct-20 22:33N 40°38' W 074°10'0 0.0
2014-Oct-20 21:21N 40°38' W 074°10'0 0.0
2014-Oct-20 20:34N 40°38' W 074°10'0 0.0
2014-Oct-20 19:32N 40°38' W 074°10'0 0.0
2014-Oct-20 18:33N 40°38' W 074°10'0 0.0
2014-Oct-20 17:32N 40°38' W 074°10'6 5.8
2014-Oct-20 16:30N 40°33' W 074°14'6 2.9
2014-Oct-20 14:26N 40°39' W 074°10'5 5.3
2014-Oct-20 13:34N 40°39' W 074°04'4 3.9
2014-Oct-20 12:33N 40°43' W 074°02'4 3.9
2014-Oct-20 11:33N 40°45' W 073°58'4 4.3
2014-Oct-20 10:33N 40°48' W 073°53'19 6.1
2014-Oct-20 07:27N 40°57' W 073°32'7 7.5
2014-Oct-20 06:33N 41°00' W 073°24'7 7.5
2014-Oct-20 05:33N 41°01' W 073°14'10 7.6
2014-Oct-20 04:10N 41°03' W 073°00'5 7.6
2014-Oct-20 03:30N 41°05' W 072°54'7 7.7
2014-Oct-20 02:34N 41°06' W 072°44'8 7.7
2014-Oct-20 01:33N 41°08' W 072°34'8 8.5
2014-Oct-20 00:34N 41°10' W 072°23'9 8.9
2014-Oct-19 23:33N 41°13' W 072°12'9 9.2
2014-Oct-19 22:33N 41°14' W 071°60'10 9.6
2014-Oct-19 21:33N 41°16' W 071°47'9 9.0
2014-Oct-19 20:33N 41°18' W 071°36'9 8.6
2014-Oct-19 19:33N 41°18' W 071°24'8 8.4
2014-Oct-19 18:33N 41°21' W 071°14'9 8.5
2014-Oct-19 17:28N 41°25' W 071°03'37 0.9
2014-Oct-18 00:24N 41°50' W 070°26'23 0.5
2014-Oct-16 00:14N 41°33' W 070°46'12 6.9
2014-Oct-15 22:28N 41°27' W 071°00'7 7.6
2014-Oct-15 21:33N 41°23' W 071°08'8 7.7
2014-Oct-15 20:33N 41°22' W 071°18'7 6.7
2014-Oct-15 19:34N 41°19' W 071°26'6 5.8
2014-Oct-15 18:33N 41°18' W 071°34'5 5.3
2014-Oct-15 17:34N 41°17' W 071°41'5 5.3
2014-Oct-15 16:34N 41°16' W 071°48'6 5.7
2014-Oct-15 15:33N 41°15' W 071°55'7 6.5
2014-Oct-15 14:33N 41°14' W 072°04'7 7.2
2014-Oct-15 13:33N 41°13' W 072°13'8 8.0
2014-Oct-15 12:34N 41°11' W 072°24'8 8.1
2014-Oct-15 11:33N 41°10' W 072°35'8 8.0
2014-Oct-15 10:33N 41°11' W 072°45'5 5.1
2014-Oct-15 09:34N 41°12' W 072°52'6 5.3
2014-Oct-15 08:27N 41°18' W 072°54'0 0.0
2014-Oct-15 07:33N 41°18' W 072°54'0 0.0
2014-Oct-15 06:34N 41°18' W 072°54'0 0.0
2014-Oct-15 05:33N 41°18' W 072°54'0 0.0
2014-Oct-15 04:33N 41°18' W 072°54'0 0.0
2014-Oct-15 03:33N 41°18' W 072°54'0 0.0
2014-Oct-15 02:33N 41°18' W 072°54'4 3.8
2014-Oct-15 01:33N 41°14' W 072°55'7 6.6
2014-Oct-15 00:34N 41°09' W 072°60'8 8.4
2014-Oct-14 23:33N 41°04' W 073°10'9 9.2
2014-Oct-14 22:33N 41°01' W 073°21'9 9.0
2014-Oct-14 21:33N 40°57' W 073°32'9 8.6
2014-Oct-14 20:33N 40°54' W 073°42'8 7.4
2014-Oct-14 19:28N 40°48' W 073°50'7 7.3
2014-Oct-14 18:33N 40°45' W 073°58'8 7.7
2014-Oct-14 17:33N 40°39' W 074°04'7 6.4
2014-Oct-14 16:32N 40°37' W 074°12'  
Track history (hours):
 
Tides and Currents Weather Stations Pressure Air Temp Water Temp Dewpoint Dewpoint Depression Visibility Wind Speed Wind Dir Waves Ship Positions

Amy C. Mc Allister

Owner: MC ALLISTER TOWING & TRANSPORTATION INC, NEW YORK, NY. More information available from US FCC via Universal Licensing System and Coast Guard Vessel Documentation Center.

Last reported at 2014-Oct-24 16:14 UTC. Time now 2014-Oct-25 18:27 UTC.
Position N 40°48' W 073°59'.

Length 27 m; draft 4.9 m.

Type: Towing. MMSI: 366995040.

Date/timePositionNaut miles runAvg speedWind from/ knotsBaromVisibWave heightAir tempDewpointWater temp
2014-Oct-24 16:14N 40°48' W 073°59'6 8.6
2014-Oct-24 15:34N 40°42' W 074°01'7 6.9
2014-Oct-24 14:33N 40°39' W 074°09'4 0.6
2014-Oct-24 08:34N 40°36' W 074°12'0 0.0
2014-Oct-24 07:19N 40°36' W 074°12'0 0.0
2014-Oct-24 06:28N 40°36' W 074°12'0 0.0
2014-Oct-24 04:28N 40°36' W 074°12'0 0.0
2014-Oct-24 03:34N 40°36' W 074°12'0 0.0
2014-Oct-24 02:34N 40°36' W 074°12'0 0.0
2014-Oct-24 01:34N 40°36' W 074°12'0 0.0
2014-Oct-24 00:33N 40°36' W 074°12'0 0.0
2014-Oct-23 23:33N 40°36' W 074°12'0 0.0
2014-Oct-23 22:27N 40°36' W 074°12'3 2.8
2014-Oct-23 21:22N 40°39' W 074°11'2 2.1
2014-Oct-23 20:32N 40°38' W 074°09'3 2.9
2014-Oct-23 19:30N 40°37' W 074°12'3 1.6
2014-Oct-23 17:34N 40°39' W 074°09'1 1.3
2014-Oct-23 16:34N 40°39' W 074°10'1 0.1
2014-Oct-23 04:27N 40°38' W 074°12'2 1.2
2014-Oct-23 03:11N 40°38' W 074°10'0 0.0
2014-Oct-23 02:26N 40°38' W 074°10'0 0.0
2014-Oct-23 00:30N 40°38' W 074°10'0 0.0
2014-Oct-22 21:16N 40°38' W 074°10'0 0.0
2014-Oct-22 20:15N 40°38' W 074°10'2 0.9
2014-Oct-22 17:34N 40°39' W 074°07'2 2.4
2014-Oct-22 16:33N 40°38' W 074°10'0 0.0
2014-Oct-22 15:33N 40°38' W 074°10'0 0.0
2014-Oct-22 14:32N 40°38' W 074°10'3 0.7
2014-Oct-22 09:30N 40°36' W 074°12'0 0.0
2014-Oct-22 08:34N 40°36' W 074°12'0 0.0
2014-Oct-22 07:33N 40°36' W 074°12'3 2.6
2014-Oct-22 06:33N 40°38' W 074°12'7 7.2
2014-Oct-22 05:34N 40°40' W 074°03'0 0.0
2014-Oct-22 04:34N 40°40' W 074°03'0 0.0
2014-Oct-22 03:34N 40°40' W 074°03'0 0.0
2014-Oct-22 02:34N 40°40' W 074°03'0 0.0
2014-Oct-22 01:34N 40°40' W 074°02'7 7.1
2014-Oct-22 00:34N 40°38' W 074°12'6 4.9
2014-Oct-21 23:15N 40°33' W 074°15'4 0.5
2014-Oct-21 15:33N 40°36' W 074°12'0 0.0
2014-Oct-21 14:33N 40°36' W 074°12'0 0.0
2014-Oct-21 13:29N 40°36' W 074°12'0 0.0
2014-Oct-21 12:33N 40°36' W 074°12'1 0.4
2014-Oct-21 10:32N 40°36' W 074°12'1 0.2
2014-Oct-21 05:32N 40°35' W 074°13'1 0.4
2014-Oct-21 02:30N 40°36' W 074°12'3 3.1
2014-Oct-21 01:30N 40°33' W 074°14'4 3.7
2014-Oct-21 00:27N 40°37' W 074°12'2 2.0
2014-Oct-20 23:23N 40°38' W 074°10'0 0.0
2014-Oct-20 22:33N 40°38' W 074°10'0 0.0
2014-Oct-20 21:21N 40°38' W 074°10'0 0.0
2014-Oct-20 20:34N 40°38' W 074°10'0 0.0
2014-Oct-20 19:32N 40°38' W 074°10'0 0.0
2014-Oct-20 18:33N 40°38' W 074°10'0 0.0
2014-Oct-20 17:32N 40°38' W 074°10'6 5.8
2014-Oct-20 16:30N 40°33' W 074°14'6 2.9
2014-Oct-20 14:26N 40°39' W 074°10'5 5.3
2014-Oct-20 13:34N 40°39' W 074°04'4 3.9
2014-Oct-20 12:33N 40°43' W 074°02'4 3.9
2014-Oct-20 11:33N 40°45' W 073°58'4 4.3
2014-Oct-20 10:33N 40°48' W 073°53'19 6.1
2014-Oct-20 07:27N 40°57' W 073°32'7 7.5
2014-Oct-20 06:33N 41°00' W 073°24'7 7.5
2014-Oct-20 05:33N 41°01' W 073°14'10 7.6
2014-Oct-20 04:10N 41°03' W 073°00'5 7.6
2014-Oct-20 03:30N 41°05' W 072°54'7 7.7
2014-Oct-20 02:34N 41°06' W 072°44'8 7.7
2014-Oct-20 01:33N 41°08' W 072°34'8 8.5
2014-Oct-20 00:34N 41°10' W 072°23'9 8.9
2014-Oct-19 23:33N 41°13' W 072°12'9 9.2
2014-Oct-19 22:33N 41°14' W 071°60'10 9.6
2014-Oct-19 21:33N 41°16' W 071°47'9 9.0
2014-Oct-19 20:33N 41°18' W 071°36'9 8.6
2014-Oct-19 19:33N 41°18' W 071°24'8 8.4
2014-Oct-19 18:33N 41°21' W 071°14'9 8.5
2014-Oct-19 17:28N 41°25' W 071°03'37 0.9
2014-Oct-18 00:24N 41°50' W 070°26'23 0.5
2014-Oct-16 00:14N 41°33' W 070°46'12 6.9
2014-Oct-15 22:28N 41°27' W 071°00'7 7.6
2014-Oct-15 21:33N 41°23' W 071°08'8 7.7
2014-Oct-15 20:33N 41°22' W 071°18'7 6.7
2014-Oct-15 19:34N 41°19' W 071°26'6 5.8
2014-Oct-15 18:33N 41°18' W 071°34'5 5.3
2014-Oct-15 17:34N 41°17' W 071°41'5 5.3
2014-Oct-15 16:34N 41°16' W 071°48'6 5.7
2014-Oct-15 15:33N 41°15' W 071°55'7 6.5
2014-Oct-15 14:33N 41°14' W 072°04'7 7.2
2014-Oct-15 13:33N 41°13' W 072°13'8 8.0
2014-Oct-15 12:34N 41°11' W 072°24'8 8.1
2014-Oct-15 11:33N 41°10' W 072°35'8 8.0
2014-Oct-15 10:33N 41°11' W 072°45'5 5.1
2014-Oct-15 09:34N 41°12' W 072°52'6 5.3
2014-Oct-15 08:27N 41°18' W 072°54'0 0.0
2014-Oct-15 07:33N 41°18' W 072°54'0 0.0
2014-Oct-15 06:34N 41°18' W 072°54'0 0.0
2014-Oct-15 05:33N 41°18' W 072°54'0 0.0
2014-Oct-15 04:33N 41°18' W 072°54'0 0.0
2014-Oct-15 03:33N 41°18' W 072°54'0 0.0
2014-Oct-15 02:33N 41°18' W 072°54'4 3.8
2014-Oct-15 01:33N 41°14' W 072°55'7 6.6
2014-Oct-15 00:34N 41°09' W 072°60'8 8.4
2014-Oct-14 23:33N 41°04' W 073°10'9 9.2
2014-Oct-14 22:33N 41°01' W 073°21'9 9.0
2014-Oct-14 21:33N 40°57' W 073°32'9 8.6
2014-Oct-14 20:33N 40°54' W 073°42'8 7.4
2014-Oct-14 19:28N 40°48' W 073°50'7 7.3
2014-Oct-14 18:33N 40°45' W 073°58'8 7.7
2014-Oct-14 17:33N 40°39' W 074°04'7 6.4
2014-Oct-14 16:32N 40°37' W 074°12'  

Dump ship's entire track history